createdAt,value
2022-11-22T00:00:29.312Z,978.11
2022-11-22T00:01:29.276Z,978.09
2022-11-22T00:02:29.337Z,978.00
2022-11-22T00:03:29.262Z,977.99
2022-11-22T00:04:29.232Z,978.03
2022-11-22T00:05:29.235Z,977.98
2022-11-22T00:06:29.231Z,977.91
2022-11-22T00:07:29.259Z,977.88
2022-11-22T00:08:29.181Z,977.92
2022-11-22T00:09:29.406Z,977.91
2022-11-22T00:10:29.161Z,977.93
2022-11-22T00:11:29.201Z,977.95
2022-11-22T00:12:29.132Z,977.91
2022-11-22T00:13:29.142Z,977.93
2022-11-22T00:14:29.124Z,977.89
2022-11-22T00:15:29.105Z,977.93
2022-11-22T00:16:29.095Z,977.93
2022-11-22T00:17:29.112Z,977.93
2022-11-22T00:18:29.070Z,977.94
2022-11-22T00:19:29.219Z,977.91
2022-11-22T00:20:29.052Z,977.91
2022-11-22T00:21:29.041Z,977.86
2022-11-22T00:22:29.026Z,977.81
2022-11-22T00:23:29.040Z,977.78
2022-11-22T00:24:29.002Z,977.81
2022-11-22T00:25:28.993Z,977.74
2022-11-22T00:26:28.980Z,977.77
2022-11-22T00:27:28.979Z,977.78
2022-11-22T00:28:28.952Z,977.68
2022-11-22T00:29:29.280Z,977.70
2022-11-22T00:30:28.933Z,977.68
2022-11-22T00:31:28.943Z,977.66
2022-11-22T00:32:28.911Z,977.66
2022-11-22T00:33:28.904Z,977.65
2022-11-22T00:34:28.909Z,977.67
2022-11-22T00:35:28.881Z,977.62
2022-11-22T00:36:28.878Z,977.60
2022-11-22T00:37:28.880Z,977.64
2022-11-22T00:38:28.831Z,977.56
2022-11-22T00:39:29.083Z,977.56
2022-11-22T00:40:28.842Z,977.52
2022-11-22T00:41:28.810Z,977.55
2022-11-22T00:42:28.790Z,977.60
2022-11-22T00:43:28.781Z,977.53
2022-11-22T00:44:28.779Z,977.59
2022-11-22T00:45:28.759Z,977.55
2022-11-22T00:46:28.763Z,977.57
2022-11-22T00:47:28.743Z,977.53
2022-11-22T00:48:28.746Z,977.55
2022-11-22T00:49:29.190Z,977.54
2022-11-22T00:50:28.699Z,977.57
2022-11-22T00:51:28.723Z,977.51
2022-11-22T00:52:28.679Z,977.54
2022-11-22T00:53:28.669Z,977.59
2022-11-22T00:54:28.661Z,977.55
2022-11-22T00:55:28.649Z,977.54
2022-11-22T00:56:28.643Z,977.49
2022-11-22T00:57:28.650Z,977.47
2022-11-22T00:58:28.608Z,977.45
2022-11-22T00:59:28.981Z,977.48
2022-11-22T01:00:28.590Z,977.46
2022-11-22T01:01:28.632Z,977.38
2022-11-22T01:02:28.589Z,977.45
2022-11-22T01:03:28.560Z,977.31
2022-11-22T01:04:28.549Z,977.41
2022-11-22T01:05:28.528Z,977.44
2022-11-22T01:06:28.508Z,977.40
2022-11-22T01:07:28.561Z,977.40
2022-11-22T01:08:28.542Z,977.42
2022-11-22T01:09:28.748Z,977.39
2022-11-22T01:10:28.473Z,977.38
2022-11-22T01:11:28.469Z,977.37
2022-11-22T01:12:28.449Z,977.38
2022-11-22T01:13:28.458Z,977.43
2022-11-22T01:14:28.472Z,977.46
2022-11-22T01:15:28.423Z,977.42
2022-11-22T01:16:28.405Z,977.45
2022-11-22T01:17:28.410Z,977.39
2022-11-22T01:18:28.400Z,977.40
2022-11-22T01:19:28.633Z,977.47
2022-11-22T01:20:28.358Z,977.43
2022-11-22T01:21:28.360Z,977.45
2022-11-22T01:22:28.338Z,977.40
2022-11-22T01:23:28.327Z,977.45
2022-11-22T01:24:28.319Z,977.40
2022-11-22T01:25:28.329Z,977.43
2022-11-22T01:26:28.298Z,977.41
2022-11-22T01:27:28.286Z,977.43
2022-11-22T01:28:28.270Z,977.43
2022-11-22T01:29:28.586Z,977.49
2022-11-22T01:30:28.247Z,977.48
2022-11-22T01:31:28.282Z,977.56
2022-11-22T01:32:28.227Z,977.52
2022-11-22T01:33:28.217Z,977.54
2022-11-22T01:34:28.205Z,977.52
2022-11-22T01:35:28.200Z,977.46
2022-11-22T01:36:28.188Z,977.54
2022-11-22T01:37:28.187Z,977.56
2022-11-22T01:38:28.156Z,977.54
2022-11-22T01:39:28.455Z,977.57
2022-11-22T01:40:28.140Z,977.62
2022-11-22T01:41:28.136Z,977.58
2022-11-22T01:42:28.107Z,977.55
2022-11-22T01:43:28.136Z,977.57
2022-11-22T01:44:28.096Z,977.56
2022-11-22T01:45:28.085Z,977.67
2022-11-22T01:46:28.067Z,977.67
2022-11-22T01:47:28.068Z,977.63
2022-11-22T01:48:28.077Z,977.59
2022-11-22T01:49:28.300Z,977.52
2022-11-22T01:50:28.026Z,977.45
2022-11-22T01:51:28.025Z,977.32
2022-11-22T01:52:28.014Z,977.39
2022-11-22T01:53:28.000Z,977.41
2022-11-22T01:54:28.008Z,977.56
2022-11-22T01:55:27.977Z,977.62
2022-11-22T01:56:27.957Z,977.59
2022-11-22T01:57:27.956Z,977.62
2022-11-22T01:58:27.945Z,977.63
2022-11-22T01:59:28.241Z,977.63
2022-11-22T02:00:27.946Z,977.70
2022-11-22T02:01:27.994Z,977.66
2022-11-22T02:02:27.897Z,977.67
2022-11-22T02:03:27.908Z,977.73
2022-11-22T02:04:27.866Z,977.74
2022-11-22T02:05:27.866Z,977.78
2022-11-22T02:06:27.888Z,977.77
2022-11-22T02:07:27.876Z,977.80
2022-11-22T02:08:27.825Z,977.79
2022-11-22T02:09:28.122Z,977.78
2022-11-22T02:10:27.805Z,977.85
2022-11-22T02:11:33.602Z,977.78
2022-11-22T02:12:28.794Z,977.80
2022-11-22T02:13:27.764Z,977.76
2022-11-22T02:14:27.752Z,977.79
2022-11-22T02:15:27.746Z,977.78
2022-11-22T02:16:27.736Z,977.83
2022-11-22T02:17:27.764Z,977.81
2022-11-22T02:18:27.715Z,977.82
2022-11-22T02:19:28.074Z,977.82
2022-11-22T02:20:27.697Z,977.86
2022-11-22T02:21:27.685Z,977.88
2022-11-22T02:22:27.666Z,977.85
2022-11-22T02:23:27.684Z,977.78
2022-11-22T02:24:27.656Z,977.81
2022-11-22T02:25:27.638Z,977.78
2022-11-22T02:26:27.645Z,977.78
2022-11-22T02:27:27.615Z,977.76
2022-11-22T02:28:27.611Z,977.77
2022-11-22T02:29:27.860Z,977.78
2022-11-22T02:30:27.587Z,977.77
2022-11-22T02:31:27.565Z,977.79
2022-11-22T02:32:27.554Z,977.86
2022-11-22T02:33:27.553Z,977.83
2022-11-22T02:34:27.573Z,977.84
2022-11-22T02:35:27.536Z,977.81
2022-11-22T02:36:27.511Z,977.84
2022-11-22T02:37:27.503Z,977.89
2022-11-22T02:38:27.493Z,977.83
2022-11-22T02:39:27.777Z,977.89
2022-11-22T02:40:27.485Z,977.88
2022-11-22T02:41:27.463Z,977.93
2022-11-22T02:42:27.442Z,977.95
2022-11-22T02:43:27.434Z,977.92
2022-11-22T02:44:27.423Z,977.92
2022-11-22T02:45:27.414Z,977.89
2022-11-22T02:46:27.425Z,977.87
2022-11-22T02:47:27.394Z,977.85
2022-11-22T02:48:27.373Z,977.82
2022-11-22T02:49:27.368Z,977.85
2022-11-22T02:50:27.354Z,977.83
2022-11-22T02:51:27.341Z,977.88
2022-11-22T02:52:27.345Z,977.90
2022-11-22T02:53:27.323Z,977.91
2022-11-22T02:54:27.302Z,977.86
2022-11-22T02:55:27.301Z,977.86
2022-11-22T02:56:27.285Z,977.78
2022-11-22T02:57:27.277Z,977.84
2022-11-22T02:58:27.283Z,977.80
2022-11-22T02:59:27.750Z,977.86
2022-11-22T03:00:27.253Z,977.89
2022-11-22T03:01:27.297Z,977.95
2022-11-22T03:02:27.212Z,977.88
2022-11-22T03:03:27.202Z,977.91
2022-11-22T03:04:27.214Z,977.86
2022-11-22T03:05:27.183Z,977.97
2022-11-22T03:06:27.163Z,977.90
2022-11-22T03:07:27.195Z,977.96
2022-11-22T03:08:27.142Z,977.96
2022-11-22T03:09:27.321Z,978.00
2022-11-22T03:10:27.141Z,978.00
2022-11-22T03:11:27.103Z,977.98
2022-11-22T03:12:27.091Z,977.94
2022-11-22T03:13:27.130Z,977.97
2022-11-22T03:14:27.073Z,977.95
2022-11-22T03:15:27.062Z,977.92
2022-11-22T03:16:27.068Z,977.89
2022-11-22T03:17:27.041Z,977.90
2022-11-22T03:18:27.025Z,977.92
2022-11-22T03:19:27.120Z,977.95
2022-11-22T03:20:27.004Z,977.94
2022-11-22T03:21:27.028Z,977.95
2022-11-22T03:22:26.981Z,977.95
2022-11-22T03:23:26.972Z,977.85
2022-11-22T03:24:26.951Z,977.93
2022-11-22T03:25:26.943Z,977.93
2022-11-22T03:26:26.931Z,977.98
2022-11-22T03:27:26.992Z,978.06
2022-11-22T03:28:26.911Z,978.05
2022-11-22T03:29:27.058Z,978.04
2022-11-22T03:30:26.883Z,978.09
2022-11-22T03:31:26.892Z,978.08
2022-11-22T03:32:26.863Z,978.09
2022-11-22T03:33:26.879Z,978.06
2022-11-22T03:34:26.841Z,978.13
2022-11-22T03:35:26.826Z,978.15
2022-11-22T03:36:26.822Z,978.15
2022-11-22T03:37:26.802Z,978.15
2022-11-22T03:38:26.798Z,978.11
2022-11-22T03:39:26.934Z,978.12
2022-11-22T03:40:26.799Z,978.12
2022-11-22T03:41:26.761Z,978.15
2022-11-22T03:42:26.750Z,978.17
2022-11-22T03:43:26.742Z,978.11
2022-11-22T03:44:26.876Z,978.15
2022-11-22T03:45:26.720Z,978.14
2022-11-22T03:46:26.709Z,978.14
2022-11-22T03:47:26.694Z,978.16
2022-11-22T03:48:26.693Z,978.17
2022-11-22T03:49:26.671Z,978.15
2022-11-22T03:50:26.691Z,978.17
2022-11-22T03:51:26.643Z,978.17
2022-11-22T03:52:26.644Z,978.19
2022-11-22T03:53:26.631Z,978.21
2022-11-22T03:54:26.610Z,978.24
2022-11-22T03:55:26.601Z,978.26
2022-11-22T03:56:26.623Z,978.33
2022-11-22T03:57:26.572Z,978.33
2022-11-22T03:58:26.579Z,978.42
2022-11-22T03:59:26.782Z,978.39
2022-11-22T04:00:26.545Z,978.43
2022-11-22T04:01:26.621Z,978.44
2022-11-22T04:02:26.545Z,978.39
2022-11-22T04:03:26.519Z,978.42
2022-11-22T04:04:26.621Z,978.45
2022-11-22T04:05:26.482Z,978.45
2022-11-22T04:06:26.481Z,978.47
2022-11-22T04:07:26.500Z,978.48
2022-11-22T04:08:26.479Z,978.46
2022-11-22T04:09:26.475Z,978.47
2022-11-22T04:10:26.433Z,978.47
2022-11-22T04:11:26.422Z,978.47
2022-11-22T04:12:26.407Z,978.45
2022-11-22T04:13:26.394Z,978.43
2022-11-22T04:14:26.408Z,978.47
2022-11-22T04:15:26.367Z,978.47
2022-11-22T04:16:26.359Z,978.54
2022-11-22T04:17:26.347Z,978.42
2022-11-22T04:18:33.382Z,978.37
2022-11-22T04:19:29.327Z,978.44
2022-11-22T04:20:26.320Z,978.48
2022-11-22T04:21:26.302Z,978.49
2022-11-22T04:22:26.290Z,978.49
2022-11-22T04:23:30.713Z,978.45
2022-11-22T04:24:27.288Z,978.45
2022-11-22T04:25:26.252Z,978.49
2022-11-22T04:26:26.242Z,978.47
2022-11-22T04:27:26.230Z,978.49
2022-11-22T04:28:40.912Z,978.49
2022-11-22T04:29:27.344Z,978.49
2022-11-22T04:30:26.224Z,978.51
2022-11-22T04:31:26.184Z,978.48
2022-11-22T04:32:26.173Z,978.48
2022-11-22T04:33:26.161Z,978.43
2022-11-22T04:34:26.150Z,978.47
2022-11-22T04:35:26.139Z,978.39
2022-11-22T04:36:26.153Z,978.40
2022-11-22T04:37:26.111Z,978.39
2022-11-22T04:38:26.112Z,978.45
2022-11-22T04:39:26.093Z,978.46
2022-11-22T04:40:26.092Z,978.48
2022-11-22T04:41:26.080Z,978.52
2022-11-22T04:42:26.081Z,978.47
2022-11-22T04:43:26.042Z,978.48
2022-11-22T04:44:26.040Z,978.47
2022-11-22T04:45:26.029Z,978.49
2022-11-22T04:46:26.017Z,978.47
2022-11-22T04:47:26.001Z,978.40
2022-11-22T04:48:26.027Z,978.42
2022-11-22T04:49:25.978Z,978.35
2022-11-22T04:50:25.970Z,978.34
2022-11-22T04:51:25.953Z,978.37
2022-11-22T04:52:25.940Z,978.34
2022-11-22T04:53:25.929Z,978.34
2022-11-22T04:54:25.940Z,978.35
2022-11-22T04:55:25.908Z,978.39
2022-11-22T04:56:25.900Z,978.37
2022-11-22T04:57:25.888Z,978.36
2022-11-22T04:58:25.873Z,978.36
2022-11-22T04:59:25.879Z,978.31
2022-11-22T05:00:25.850Z,978.41
2022-11-22T05:01:25.928Z,978.45
2022-11-22T05:02:25.835Z,978.49
2022-11-22T05:03:25.809Z,978.47
2022-11-22T05:04:25.813Z,978.48
2022-11-22T05:05:25.812Z,978.55
2022-11-22T05:06:25.780Z,978.54
2022-11-22T05:07:25.844Z,978.53
2022-11-22T05:08:25.758Z,978.54
2022-11-22T05:09:25.748Z,978.58
2022-11-22T05:10:26.988Z,978.58
2022-11-22T05:11:25.739Z,978.55
2022-11-22T05:12:25.710Z,978.55
2022-11-22T05:13:25.699Z,978.59
2022-11-22T05:14:25.689Z,978.64
2022-11-22T05:15:25.684Z,978.64
2022-11-22T05:16:25.689Z,978.62
2022-11-22T05:17:25.649Z,978.68
2022-11-22T05:18:25.648Z,978.70
2022-11-22T05:19:25.629Z,978.71
2022-11-22T05:20:25.629Z,978.72
2022-11-22T05:21:25.609Z,978.72
2022-11-22T05:22:25.631Z,978.69
2022-11-22T05:23:25.581Z,978.72
2022-11-22T05:24:25.582Z,978.74
2022-11-22T05:25:25.969Z,978.75
2022-11-22T05:26:25.548Z,978.76
2022-11-22T05:27:25.537Z,978.73
2022-11-22T05:28:25.549Z,978.75
2022-11-22T05:29:25.517Z,978.71
2022-11-22T05:30:25.511Z,978.77
2022-11-22T05:31:25.492Z,978.74
2022-11-22T05:32:25.480Z,978.72
2022-11-22T05:33:25.468Z,978.80
2022-11-22T05:34:25.468Z,978.80
2022-11-22T05:35:25.449Z,978.86
2022-11-22T05:36:25.436Z,978.82
2022-11-22T05:37:25.419Z,978.84
2022-11-22T05:38:25.417Z,978.89
2022-11-22T05:39:25.420Z,978.85
2022-11-22T05:40:25.388Z,978.89
2022-11-22T05:41:25.378Z,978.85
2022-11-22T05:42:25.368Z,978.86
2022-11-22T05:43:25.348Z,978.86
2022-11-22T05:44:25.349Z,978.76
2022-11-22T05:45:25.349Z,978.87
2022-11-22T05:46:25.545Z,978.87
2022-11-22T05:47:25.307Z,978.85
2022-11-22T05:48:25.298Z,978.90
2022-11-22T05:49:25.288Z,978.91
2022-11-22T05:50:25.298Z,978.95
2022-11-22T05:51:29.104Z,978.97
2022-11-22T05:52:26.248Z,978.95
2022-11-22T05:53:25.243Z,978.97
2022-11-22T05:54:25.227Z,979.00
2022-11-22T05:55:25.216Z,979.01
2022-11-22T05:56:25.233Z,979.06
2022-11-22T05:57:25.198Z,979.11
2022-11-22T05:58:25.187Z,979.13
2022-11-22T05:59:25.168Z,979.09
2022-11-22T06:00:25.171Z,979.13
2022-11-22T06:01:25.150Z,979.14
2022-11-22T06:02:25.231Z,979.12
2022-11-22T06:03:25.120Z,979.16
2022-11-22T06:04:25.117Z,979.13
2022-11-22T06:05:25.108Z,979.16
2022-11-22T06:06:25.088Z,979.11
2022-11-22T06:07:25.138Z,979.15
2022-11-22T06:08:25.067Z,979.20
2022-11-22T06:09:25.074Z,979.11
2022-11-22T06:10:25.047Z,979.17
2022-11-22T06:11:25.037Z,979.14
2022-11-22T06:12:25.018Z,979.15
2022-11-22T06:13:25.027Z,979.18
2022-11-22T06:14:24.999Z,979.18
2022-11-22T06:15:24.993Z,979.19
2022-11-22T06:16:24.978Z,979.24
2022-11-22T06:17:24.958Z,979.29
2022-11-22T06:18:24.958Z,979.26
2022-11-22T06:19:24.956Z,979.28
2022-11-22T06:20:24.935Z,979.33
2022-11-22T06:21:24.918Z,979.34
2022-11-22T06:22:24.908Z,979.40
2022-11-22T06:23:24.895Z,979.38
2022-11-22T06:24:24.916Z,979.43
2022-11-22T06:25:24.876Z,979.50
2022-11-22T06:26:24.870Z,979.48
2022-11-22T06:27:24.848Z,979.48
2022-11-22T06:28:24.838Z,979.49
2022-11-22T06:29:24.835Z,979.48
2022-11-22T06:30:24.838Z,979.54
2022-11-22T06:31:24.820Z,979.48
2022-11-22T06:32:24.935Z,979.46
2022-11-22T06:33:24.779Z,979.47
2022-11-22T06:34:24.779Z,979.51
2022-11-22T06:35:24.770Z,979.51
2022-11-22T06:36:24.770Z,979.52
2022-11-22T06:37:24.729Z,979.50
2022-11-22T06:38:24.732Z,979.51
2022-11-22T06:39:24.722Z,979.56
2022-11-22T06:40:24.708Z,979.55
2022-11-22T06:41:24.712Z,979.59
2022-11-22T06:42:24.677Z,979.68
2022-11-22T06:43:24.657Z,979.71
2022-11-22T06:44:24.655Z,979.79
2022-11-22T06:45:24.647Z,979.83
2022-11-22T06:46:24.631Z,979.82
2022-11-22T06:47:24.635Z,979.83
2022-11-22T06:48:24.607Z,979.77
2022-11-22T06:49:24.587Z,979.80
2022-11-22T06:50:24.586Z,979.79
2022-11-22T06:51:24.573Z,979.82
2022-11-22T06:52:24.576Z,979.78
2022-11-22T06:53:45.813Z,979.81
2022-11-22T06:54:25.535Z,979.81
2022-11-22T06:55:48.975Z,979.80
2022-11-22T06:56:25.515Z,979.75
2022-11-22T06:57:24.531Z,979.76
2022-11-22T06:58:24.498Z,979.81
2022-11-22T06:59:24.497Z,979.87
2022-11-22T07:00:24.484Z,979.82
2022-11-22T07:01:24.596Z,979.80
2022-11-22T07:02:24.446Z,979.77
2022-11-22T07:03:24.434Z,979.80
2022-11-22T07:04:24.426Z,979.80
2022-11-22T07:05:25.903Z,979.82
2022-11-22T07:06:24.407Z,979.89
2022-11-22T07:07:24.429Z,979.85
2022-11-22T07:08:24.379Z,979.80
2022-11-22T07:09:24.366Z,979.89
2022-11-22T07:10:24.375Z,979.87
2022-11-22T07:11:24.339Z,979.86
2022-11-22T07:12:24.336Z,979.87
2022-11-22T07:13:24.323Z,979.87
2022-11-22T07:14:24.314Z,979.87
2022-11-22T07:15:24.294Z,979.89
2022-11-22T07:16:24.308Z,979.85
2022-11-22T07:17:24.274Z,979.90
2022-11-22T07:18:24.263Z,979.91
2022-11-22T07:19:24.254Z,979.95
2022-11-22T07:20:24.244Z,979.99
2022-11-22T07:21:24.223Z,979.99
2022-11-22T07:22:24.234Z,979.99
2022-11-22T07:23:24.204Z,979.96
2022-11-22T07:24:24.194Z,980.03
2022-11-22T07:25:24.183Z,980.02
2022-11-22T07:26:24.174Z,980.07
2022-11-22T07:27:24.174Z,980.12
2022-11-22T07:28:24.163Z,980.05
2022-11-22T07:29:24.135Z,980.15
2022-11-22T07:30:24.123Z,980.07
2022-11-22T07:31:24.111Z,980.15
2022-11-22T07:32:24.103Z,980.16
2022-11-22T07:33:24.094Z,980.19
2022-11-22T07:34:24.102Z,980.21
2022-11-22T07:35:24.070Z,980.26
2022-11-22T07:36:24.053Z,980.21
2022-11-22T07:37:24.045Z,980.24
2022-11-22T07:38:24.035Z,980.29
2022-11-22T07:39:24.015Z,980.32
2022-11-22T07:40:24.053Z,980.30
2022-11-22T07:41:24.008Z,980.27
2022-11-22T07:42:26.178Z,980.34
2022-11-22T07:43:23.972Z,980.33
2022-11-22T07:44:23.962Z,980.27
2022-11-22T07:45:23.952Z,980.34
2022-11-22T07:46:23.971Z,980.34
2022-11-22T07:47:23.933Z,980.39
2022-11-22T07:48:23.912Z,980.33
2022-11-22T07:49:23.903Z,980.36
2022-11-22T07:50:23.892Z,980.35
2022-11-22T07:51:23.901Z,980.42
2022-11-22T07:52:23.892Z,980.36
2022-11-22T07:53:23.861Z,980.31
2022-11-22T07:54:23.850Z,980.33
2022-11-22T07:55:23.831Z,980.32
2022-11-22T07:56:23.821Z,980.32
2022-11-22T07:57:23.813Z,980.35
2022-11-22T07:58:23.811Z,980.31
2022-11-22T07:59:23.791Z,980.33
2022-11-22T08:00:23.773Z,980.38
2022-11-22T08:01:23.937Z,980.39
2022-11-22T08:02:23.751Z,980.37
2022-11-22T08:03:28.625Z,980.38
2022-11-22T08:04:24.732Z,980.44
2022-11-22T08:05:23.721Z,980.47
2022-11-22T08:06:23.710Z,980.46
2022-11-22T08:07:23.728Z,980.44
2022-11-22T08:08:23.683Z,980.48
2022-11-22T08:09:23.691Z,980.48
2022-11-22T08:10:23.661Z,980.51
2022-11-22T08:11:23.652Z,980.50
2022-11-22T08:12:23.641Z,980.49
2022-11-22T08:13:23.632Z,980.52
2022-11-22T08:14:23.632Z,980.53
2022-11-22T08:15:23.607Z,980.57
2022-11-22T08:16:23.591Z,980.59
2022-11-22T08:17:23.583Z,980.64
2022-11-22T08:18:23.571Z,980.70
2022-11-22T08:19:23.561Z,980.74
2022-11-22T08:20:23.571Z,980.72
2022-11-22T08:21:23.531Z,980.77
2022-11-22T08:22:23.522Z,980.75
2022-11-22T08:23:23.517Z,980.75
2022-11-22T08:24:23.499Z,980.71
2022-11-22T08:25:23.490Z,980.64
2022-11-22T08:26:23.492Z,980.75
2022-11-22T08:27:23.461Z,980.74
2022-11-22T08:28:23.451Z,980.71
2022-11-22T08:29:23.440Z,980.69
2022-11-22T08:30:23.421Z,980.69
2022-11-22T08:31:23.420Z,980.66
2022-11-22T08:32:23.420Z,980.69
2022-11-22T08:33:23.400Z,980.69
2022-11-22T08:34:23.381Z,980.66
2022-11-22T08:35:23.381Z,980.71
2022-11-22T08:36:23.361Z,980.67
2022-11-22T08:37:23.370Z,980.73
2022-11-22T08:38:23.339Z,980.74
2022-11-22T08:39:23.330Z,980.74
2022-11-22T08:40:23.319Z,980.80
2022-11-22T08:41:23.310Z,980.79
2022-11-22T08:42:23.289Z,980.79
2022-11-22T08:43:23.339Z,980.79
2022-11-22T08:44:23.270Z,980.89
2022-11-22T08:45:23.261Z,980.85
2022-11-22T08:46:23.249Z,980.88
2022-11-22T08:47:23.239Z,980.83
2022-11-22T08:48:23.234Z,980.87
2022-11-22T08:49:23.239Z,980.91
2022-11-22T08:50:23.200Z,980.94
2022-11-22T08:51:23.199Z,980.96
2022-11-22T08:52:23.179Z,981.01
2022-11-22T08:53:23.173Z,980.99
2022-11-22T08:54:23.159Z,980.90
2022-11-22T08:55:23.179Z,981.03
2022-11-22T08:56:23.140Z,980.93
2022-11-22T08:57:23.129Z,980.98
2022-11-22T08:58:23.129Z,980.96
2022-11-22T08:59:23.174Z,980.95
2022-11-22T09:00:23.136Z,980.97
2022-11-22T09:01:23.184Z,980.91
2022-11-22T09:02:23.072Z,981.00
2022-11-22T09:03:23.060Z,980.99
2022-11-22T09:04:23.050Z,981.00
2022-11-22T09:05:23.220Z,981.00
2022-11-22T09:08:24.160Z,981.05
2022-11-22T09:09:36.812Z,981.06
2022-11-22T09:10:23.978Z,981.07
2022-11-22T09:11:22.978Z,981.06
2022-11-22T09:12:22.978Z,981.04
2022-11-22T09:13:22.948Z,981.06
2022-11-22T09:14:22.939Z,981.07
2022-11-22T09:15:22.928Z,981.07
2022-11-22T09:16:22.920Z,981.12
2022-11-22T09:17:22.929Z,981.08
2022-11-22T09:18:22.889Z,981.09
2022-11-22T09:19:22.888Z,981.06
2022-11-22T09:20:22.868Z,981.03
2022-11-22T09:21:22.859Z,981.11
2022-11-22T09:22:28.030Z,981.13
2022-11-22T09:23:23.863Z,981.15
2022-11-22T09:24:22.840Z,981.18
2022-11-22T09:25:22.818Z,981.21
2022-11-22T09:26:22.800Z,981.22
2022-11-22T09:27:22.797Z,981.20
2022-11-22T09:28:22.807Z,981.10
2022-11-22T09:29:22.778Z,981.14
2022-11-22T09:30:22.760Z,981.09
2022-11-22T09:31:22.749Z,981.15
2022-11-22T09:32:22.738Z,981.13
2022-11-22T09:33:22.728Z,981.20
2022-11-22T09:34:22.738Z,981.19
2022-11-22T09:35:22.709Z,981.20
2022-11-22T09:36:22.696Z,981.18
2022-11-22T09:37:22.689Z,981.18
2022-11-22T09:38:22.670Z,981.17
2022-11-22T09:39:22.667Z,981.14
2022-11-22T09:40:22.676Z,981.12
2022-11-22T09:41:22.646Z,981.06
2022-11-22T09:42:22.629Z,981.09
2022-11-22T09:43:22.648Z,981.07
2022-11-22T09:44:22.599Z,981.02
2022-11-22T09:45:22.596Z,981.02
2022-11-22T09:46:22.636Z,981.01
2022-11-22T09:47:22.575Z,980.96
2022-11-22T09:48:22.560Z,980.89
2022-11-22T09:49:22.550Z,980.99
2022-11-22T09:50:22.537Z,981.02
2022-11-22T09:51:22.553Z,980.95
2022-11-22T09:52:22.538Z,981.03
2022-11-22T09:53:22.508Z,981.06
2022-11-22T09:54:22.488Z,981.05
2022-11-22T09:55:24.231Z,981.01
2022-11-22T09:56:22.468Z,981.05
2022-11-22T09:57:22.458Z,981.04
2022-11-22T09:58:22.468Z,981.12
2022-11-22T09:59:22.438Z,981.15
2022-11-22T10:00:22.420Z,981.13
2022-11-22T10:01:22.482Z,981.18
2022-11-22T10:02:22.418Z,981.16
2022-11-22T10:03:22.407Z,981.17
2022-11-22T10:04:22.378Z,981.14
2022-11-22T10:05:22.378Z,981.16
2022-11-22T10:06:22.360Z,981.21
2022-11-22T10:07:22.411Z,981.12
2022-11-22T10:08:22.358Z,981.12
2022-11-22T10:09:22.327Z,981.07
2022-11-22T10:10:22.311Z,981.09
2022-11-22T10:11:22.339Z,981.02
2022-11-22T10:12:22.287Z,981.06
2022-11-22T10:13:22.279Z,980.99
2022-11-22T10:14:22.287Z,980.97
2022-11-22T10:15:22.257Z,981.00
2022-11-22T10:16:22.246Z,981.02
2022-11-22T10:17:22.237Z,981.05
2022-11-22T10:18:22.218Z,981.00
2022-11-22T10:19:22.208Z,981.00
2022-11-22T10:20:22.217Z,980.96
2022-11-22T10:21:22.189Z,980.87
2022-11-22T10:22:22.178Z,980.89
2022-11-22T10:23:22.177Z,980.91
2022-11-22T10:24:22.168Z,980.91
2022-11-22T10:25:22.183Z,980.89
2022-11-22T10:26:22.131Z,980.91
2022-11-22T10:27:22.147Z,980.88
2022-11-22T10:28:22.110Z,980.82
2022-11-22T10:29:22.101Z,980.86
2022-11-22T10:30:22.088Z,980.86
2022-11-22T10:31:22.098Z,980.82
2022-11-22T10:32:29.179Z,980.80
2022-11-22T10:33:22.056Z,980.77
2022-11-22T10:34:22.048Z,980.84
2022-11-22T10:35:22.046Z,980.76
2022-11-22T10:36:22.047Z,980.83
2022-11-22T10:37:22.008Z,980.81
2022-11-22T10:38:22.006Z,980.82
2022-11-22T10:39:21.999Z,980.73
2022-11-22T10:40:21.983Z,980.81
2022-11-22T10:41:21.969Z,980.79
2022-11-22T10:42:21.970Z,980.77
2022-11-22T10:43:21.951Z,980.74
2022-11-22T10:44:21.940Z,980.72
2022-11-22T10:45:21.937Z,980.78
2022-11-22T10:46:21.921Z,980.70
2022-11-22T10:47:21.929Z,980.75
2022-11-22T10:48:21.889Z,980.79
2022-11-22T10:49:21.892Z,980.72
2022-11-22T10:50:21.867Z,980.76
2022-11-22T10:51:21.874Z,980.81
2022-11-22T10:52:21.847Z,980.78
2022-11-22T10:53:21.871Z,980.79
2022-11-22T10:54:21.822Z,980.78
2022-11-22T10:55:21.808Z,980.83
2022-11-22T10:56:21.800Z,980.74
2022-11-22T10:57:21.788Z,980.79
2022-11-22T10:58:21.779Z,980.83
2022-11-22T10:59:27.255Z,980.86
2022-11-22T11:00:22.763Z,980.83
2022-11-22T11:01:21.838Z,980.89
2022-11-22T11:02:21.731Z,980.83
2022-11-22T11:03:21.730Z,980.83
2022-11-22T11:04:21.708Z,980.90
2022-11-22T11:05:21.737Z,980.88
2022-11-22T11:06:26.699Z,980.91
2022-11-22T11:07:22.762Z,980.88
2022-11-22T11:08:42.084Z,980.88
2022-11-22T11:10:29.531Z,980.83
2022-11-22T11:11:22.637Z,980.83
2022-11-22T11:12:21.618Z,980.86
2022-11-22T11:13:21.607Z,980.87
2022-11-22T11:14:21.603Z,980.92
2022-11-22T11:15:21.620Z,980.96
2022-11-22T11:16:21.593Z,980.89
2022-11-22T11:17:21.568Z,980.92
2022-11-22T11:18:21.559Z,980.91
2022-11-22T11:19:21.548Z,980.92
2022-11-22T11:20:21.529Z,980.88
2022-11-22T11:21:21.536Z,980.95
2022-11-22T11:22:44.259Z,980.94
2022-11-22T11:23:22.499Z,980.95
2022-11-22T11:24:21.492Z,980.90
2022-11-22T11:25:21.476Z,980.90
2022-11-22T11:26:21.500Z,980.99
2022-11-22T11:27:21.448Z,980.97
2022-11-22T11:28:21.439Z,980.96
2022-11-22T11:29:21.439Z,980.91
2022-11-22T11:30:21.417Z,980.96
2022-11-22T11:31:21.418Z,980.93
2022-11-22T11:32:21.420Z,980.95
2022-11-22T11:33:21.378Z,980.94
2022-11-22T11:34:21.370Z,980.91
2022-11-22T11:35:21.372Z,980.93
2022-11-22T11:36:21.358Z,980.94
2022-11-22T11:37:21.367Z,980.92
2022-11-22T11:38:21.347Z,980.97
2022-11-22T11:39:21.327Z,980.87
2022-11-22T11:40:21.309Z,980.91
2022-11-22T11:41:21.315Z,980.85
2022-11-22T11:42:21.278Z,980.85
2022-11-22T11:43:21.323Z,980.87
2022-11-22T11:44:21.268Z,980.82
2022-11-22T11:45:21.248Z,980.81
2022-11-22T11:46:21.240Z,980.85
2022-11-22T11:47:21.226Z,980.84
2022-11-22T11:48:21.207Z,980.83
2022-11-22T11:49:21.252Z,980.83
2022-11-22T11:50:24.339Z,980.83
2022-11-22T11:51:21.190Z,980.87
2022-11-22T11:52:21.169Z,980.79
2022-11-22T11:53:21.160Z,980.84
2022-11-22T11:54:21.147Z,980.83
2022-11-22T11:55:21.161Z,980.83
2022-11-22T11:56:21.130Z,980.83
2022-11-22T11:57:21.121Z,980.81
2022-11-22T11:58:21.097Z,980.82
2022-11-22T11:59:21.087Z,980.75
2022-11-22T12:00:21.078Z,980.74
2022-11-22T12:01:21.088Z,980.66
2022-11-22T12:02:21.090Z,980.67
2022-11-22T12:03:21.049Z,980.66
2022-11-22T12:04:21.038Z,980.58
2022-11-22T12:05:21.028Z,980.58
2022-11-22T12:06:21.017Z,980.62
2022-11-22T12:07:21.110Z,980.65
2022-11-22T12:08:20.998Z,980.62
2022-11-22T12:09:20.977Z,980.66
2022-11-22T12:10:20.968Z,980.70
2022-11-22T12:11:20.957Z,980.69
2022-11-22T12:12:20.949Z,980.71
2022-11-22T12:13:20.957Z,980.72
2022-11-22T12:14:20.972Z,980.71
2022-11-22T12:15:20.925Z,980.68
2022-11-22T12:16:21.013Z,980.70
2022-11-22T12:17:20.892Z,980.60
2022-11-22T12:18:20.880Z,980.65
2022-11-22T12:19:24.804Z,980.64
2022-11-22T12:20:20.858Z,980.73
2022-11-22T12:21:20.857Z,980.73
2022-11-22T12:22:42.595Z,980.71
2022-11-22T12:23:21.822Z,980.72
2022-11-22T12:24:45.232Z,980.65
2022-11-22T12:25:32.530Z,980.66
2022-11-22T12:26:21.798Z,980.66
2022-11-22T12:27:20.779Z,980.63
2022-11-22T12:28:20.787Z,980.61
2022-11-22T12:29:20.758Z,980.64
2022-11-22T12:30:20.758Z,980.58
2022-11-22T12:31:20.763Z,980.54